createdAt,value
2022-08-28T00:00:19.469Z,85.11
2022-08-28T00:01:39.707Z,85.21
2022-08-28T00:02:41.549Z,85.05
2022-08-28T00:03:43.500Z,85.07
2022-08-28T00:04:45.129Z,85.14
2022-08-28T00:05:46.893Z,85.16
2022-08-28T00:06:48.512Z,85.15
2022-08-28T00:07:50.157Z,85.20
2022-08-28T00:08:52.080Z,85.06
2022-08-28T00:09:53.728Z,85.09
2022-08-28T00:10:55.826Z,85.20
2022-08-28T00:11:57.374Z,85.22
2022-08-28T00:12:59.360Z,85.20
2022-08-28T00:14:02.233Z,85.20
2022-08-28T00:15:06.746Z,85.07
2022-08-28T00:16:11.286Z,85.30
2022-08-28T00:17:12.970Z,85.37
2022-08-28T00:18:15.132Z,85.25
2022-08-28T00:19:18.197Z,85.27
2022-08-28T00:20:20.238Z,85.51
2022-08-28T00:21:21.963Z,85.41
2022-08-28T00:22:23.589Z,85.50
2022-08-28T00:23:25.765Z,85.49
2022-08-28T00:24:42.241Z,85.52
2022-08-28T00:25:43.882Z,85.56
2022-08-28T00:27:04.039Z,85.54
2022-08-28T00:28:08.770Z,85.59
2022-08-28T00:29:10.873Z,85.52
2022-08-28T00:30:12.584Z,85.47
2022-08-28T00:31:14.181Z,85.64
2022-08-28T00:32:15.944Z,85.68
2022-08-28T00:33:25.456Z,85.58
2022-08-28T00:34:33.523Z,85.51
2022-08-28T00:35:35.719Z,85.74
2022-08-28T00:36:37.983Z,85.68
2022-08-28T00:37:39.570Z,85.56
2022-08-28T00:38:41.406Z,85.56
2022-08-28T00:39:44.178Z,85.51
2022-08-28T00:40:46.972Z,85.48
2022-08-28T00:41:50.083Z,85.36
2022-08-28T00:42:59.751Z,85.51
2022-08-28T00:44:13.424Z,85.53
2022-08-28T00:45:15.698Z,85.49
2022-08-28T00:46:19.138Z,85.45
2022-08-28T00:47:25.614Z,85.33
2022-08-28T00:48:27.502Z,85.37
2022-08-28T00:49:30.754Z,85.14
2022-08-28T00:50:51.909Z,85.06
2022-08-28T00:52:12.261Z,85.15
2022-08-28T00:53:14.121Z,85.14
2022-08-28T00:54:17.134Z,85.09
2022-08-28T00:55:22.889Z,85.06
2022-08-28T00:56:24.790Z,85.12
2022-08-28T00:57:29.515Z,85.02
2022-08-28T00:58:31.152Z,84.94
2022-08-28T00:59:33.506Z,85.02
2022-08-28T01:00:36.615Z,85.08
2022-08-28T01:01:38.538Z,85.13
2022-08-28T01:02:40.374Z,85.11
2022-08-28T01:03:42.516Z,85.00
2022-08-28T01:04:44.596Z,84.87
2022-08-28T01:05:48.529Z,84.92
2022-08-28T01:06:53.793Z,84.96
2022-08-28T01:07:58.096Z,84.99
2022-08-28T01:09:00.022Z,84.72
2022-08-28T01:10:01.659Z,84.87
2022-08-28T01:11:04.888Z,84.96
2022-08-28T01:12:20.259Z,84.94
2022-08-28T01:13:23.740Z,85.01
2022-08-28T01:14:26.007Z,84.98
2022-08-28T01:15:29.515Z,85.21
2022-08-28T01:16:33.834Z,85.04
2022-08-28T01:17:37.934Z,84.85
2022-08-28T01:18:42.580Z,84.76
2022-08-28T01:19:46.025Z,84.66
2022-08-28T01:20:51.170Z,84.45
2022-08-28T01:22:01.323Z,84.54
2022-08-28T01:23:24.425Z,84.60
2022-08-28T01:24:26.650Z,84.58
2022-08-28T01:25:30.738Z,84.47
2022-08-28T01:26:32.314Z,84.49
2022-08-28T01:27:34.082Z,84.46
2022-08-28T01:28:35.720Z,84.46
2022-08-28T01:29:37.364Z,84.35
2022-08-28T01:32:00.195Z,84.44
2022-08-28T01:33:02.003Z,84.29
2022-08-28T01:34:05.684Z,84.13
2022-08-28T01:35:09.359Z,84.26
2022-08-28T01:36:12.000Z,84.21
2022-08-28T01:37:13.615Z,84.21
2022-08-28T01:38:17.602Z,84.18
2022-08-28T01:39:22.821Z,84.17
2022-08-28T01:40:29.419Z,84.18
2022-08-28T01:41:31.100Z,84.29
2022-08-28T01:42:36.472Z,84.35
2022-08-28T01:43:39.431Z,84.33
2022-08-28T01:44:40.993Z,84.32
2022-08-28T01:45:44.325Z,84.32
2022-08-28T01:46:46.162Z,84.40
2022-08-28T01:47:48.178Z,84.28
2022-08-28T01:48:53.074Z,84.51
2022-08-28T01:49:54.608Z,84.51
2022-08-28T01:50:56.250Z,84.47
2022-08-28T01:51:57.948Z,84.55
2022-08-28T01:52:59.990Z,84.65
2022-08-28T01:54:01.903Z,84.59
2022-08-28T01:55:05.619Z,84.61
2022-08-28T01:56:10.055Z,84.76
2022-08-28T01:57:11.592Z,84.60
2022-08-28T01:58:13.395Z,84.78
2022-08-28T01:59:15.145Z,84.72
2022-08-28T02:00:17.559Z,84.83
2022-08-28T02:01:21.073Z,84.83
2022-08-28T02:02:22.819Z,84.89
2022-08-28T02:03:24.650Z,84.95
2022-08-28T02:04:32.122Z,84.97
2022-08-28T02:05:34.606Z,85.17
2022-08-28T02:06:37.234Z,85.22
2022-08-28T02:07:39.125Z,85.15
2022-08-28T02:08:40.886Z,85.19
2022-08-28T02:09:42.836Z,85.34
2022-08-28T02:10:44.489Z,85.38
2022-08-28T02:11:46.879Z,85.49
2022-08-28T02:12:49.444Z,85.59
2022-08-28T02:13:51.931Z,85.58
2022-08-28T02:14:56.051Z,85.50
2022-08-28T02:16:00.310Z,85.63
2022-08-28T02:17:02.391Z,85.69
2022-08-28T02:18:05.195Z,85.60
2022-08-28T02:19:06.813Z,85.79
2022-08-28T02:20:08.726Z,85.81
2022-08-28T02:21:11.450Z,85.85
2022-08-28T02:22:13.122Z,86.01
2022-08-28T02:23:14.852Z,85.89
2022-08-28T02:24:16.733Z,86.13
2022-08-28T02:25:18.850Z,86.15
2022-08-28T02:26:21.072Z,86.04
2022-08-28T02:27:22.686Z,86.05
2022-08-28T02:28:24.350Z,86.17
2022-08-28T02:29:26.620Z,86.11
2022-08-28T02:30:29.587Z,86.11
2022-08-28T02:31:31.414Z,86.18
2022-08-28T02:32:33.083Z,86.12
2022-08-28T02:33:37.003Z,86.13
2022-08-28T02:34:39.635Z,86.22
2022-08-28T02:35:41.909Z,86.13
2022-08-28T02:36:43.543Z,86.24
2022-08-28T02:37:47.637Z,86.32
2022-08-28T02:38:55.376Z,86.28
2022-08-28T02:39:59.131Z,86.30
2022-08-28T02:41:01.060Z,86.54
2022-08-28T02:42:06.026Z,86.35
2022-08-28T02:43:07.885Z,86.31
2022-08-28T02:44:09.569Z,86.41
2022-08-28T02:45:11.878Z,86.35
2022-08-28T02:46:13.788Z,86.47
2022-08-28T02:47:15.546Z,86.80
2022-08-28T02:48:17.698Z,86.54
2022-08-28T02:49:19.435Z,86.68
2022-08-28T02:50:21.204Z,86.60
2022-08-28T02:51:23.106Z,86.64
2022-08-28T02:52:24.737Z,86.75
2022-08-28T02:53:27.578Z,86.81
2022-08-28T02:54:30.379Z,86.95
2022-08-28T02:55:34.176Z,86.87
2022-08-28T02:56:36.189Z,86.81
2022-08-28T02:57:37.950Z,86.71
2022-08-28T02:58:40.084Z,86.89
2022-08-28T02:59:43.300Z,86.78
2022-08-28T03:00:44.967Z,86.87
2022-08-28T03:01:46.883Z,86.74
2022-08-28T03:02:49.087Z,86.80
2022-08-28T03:03:50.770Z,86.97
2022-08-28T03:04:52.307Z,86.92
2022-08-28T03:05:55.063Z,87.18
2022-08-28T03:06:57.569Z,87.15
2022-08-28T03:07:59.126Z,87.14
2022-08-28T03:09:00.636Z,87.16
2022-08-28T03:10:03.669Z,87.17
2022-08-28T03:11:05.256Z,87.34
2022-08-28T03:12:07.848Z,87.33
2022-08-28T03:13:10.593Z,87.43
2022-08-28T03:14:25.717Z,87.54
2022-08-28T03:15:27.918Z,87.48
2022-08-28T03:16:30.303Z,87.60
2022-08-28T03:17:32.021Z,87.56
2022-08-28T03:18:33.855Z,87.55
2022-08-28T03:19:35.511Z,87.58
2022-08-28T03:20:37.270Z,87.68
2022-08-28T03:21:39.017Z,87.89
2022-08-28T03:22:59.312Z,87.92
2022-08-28T03:24:01.007Z,87.95
2022-08-28T03:25:03.181Z,87.92
2022-08-28T03:26:08.922Z,88.05
2022-08-28T03:27:11.130Z,87.88
2022-08-28T03:28:12.915Z,87.83
2022-08-28T03:29:14.818Z,88.05
2022-08-28T03:30:17.734Z,88.14
2022-08-28T03:31:21.315Z,88.07
2022-08-28T03:32:22.940Z,88.20
2022-08-28T03:33:26.171Z,88.22
2022-08-28T03:34:27.764Z,88.36
2022-08-28T03:35:29.389Z,88.41
2022-08-28T03:36:31.340Z,88.56
2022-08-28T03:37:32.983Z,88.67
2022-08-28T03:38:35.154Z,88.73
2022-08-28T03:39:36.944Z,88.78
2022-08-28T03:40:39.855Z,88.85
2022-08-28T03:41:41.505Z,88.99
2022-08-28T03:42:43.230Z,88.95
2022-08-28T03:43:56.690Z,88.93
2022-08-28T03:44:58.244Z,88.94
2022-08-28T03:46:01.700Z,89.08
2022-08-28T03:47:04.407Z,89.05
2022-08-28T03:48:07.306Z,88.94
2022-08-28T03:49:09.113Z,88.94
2022-08-28T03:50:11.325Z,89.10
2022-08-28T03:51:14.465Z,89.10
2022-08-28T03:52:16.812Z,89.16
2022-08-28T03:53:19.386Z,89.27
2022-08-28T03:54:21.243Z,89.28
2022-08-28T03:55:22.778Z,89.40
2022-08-28T03:56:26.220Z,89.48
2022-08-28T03:57:27.842Z,89.62
2022-08-28T03:58:29.702Z,89.56
2022-08-28T03:59:33.524Z,89.54
2022-08-28T04:00:35.670Z,89.58
2022-08-28T04:01:37.613Z,89.73
2022-08-28T04:02:40.366Z,89.71
2022-08-28T04:03:41.984Z,89.84
2022-08-28T04:04:43.989Z,89.80
2022-08-28T04:05:46.222Z,89.84
2022-08-28T04:06:48.027Z,89.99
2022-08-28T04:07:50.720Z,90.02
2022-08-28T04:08:52.351Z,89.89
2022-08-28T04:09:53.951Z,89.92
2022-08-28T04:10:56.005Z,89.98
2022-08-28T04:11:57.563Z,90.06
2022-08-28T04:12:59.585Z,90.09
2022-08-28T04:14:01.454Z,90.05
2022-08-28T04:15:03.611Z,90.19
2022-08-28T04:16:09.954Z,90.25
2022-08-28T04:17:11.688Z,90.19
2022-08-28T04:18:13.620Z,90.25
2022-08-28T04:19:15.404Z,90.26
2022-08-28T04:20:17.133Z,90.14
2022-08-28T04:21:21.747Z,90.19
2022-08-28T04:22:23.715Z,90.25
2022-08-28T04:23:25.869Z,90.30
2022-08-28T04:24:27.585Z,90.33
2022-08-28T04:25:29.997Z,90.27
2022-08-28T04:26:35.892Z,90.39
2022-08-28T04:27:37.501Z,90.39
2022-08-28T04:28:39.157Z,90.39
2022-08-28T04:29:40.981Z,90.33
2022-08-28T04:30:42.711Z,90.22
2022-08-28T04:31:44.288Z,90.10
2022-08-28T04:32:45.996Z,90.09
2022-08-28T04:33:47.672Z,90.20
2022-08-28T04:34:49.646Z,90.19
2022-08-28T04:35:51.826Z,90.28
2022-08-28T04:36:53.413Z,90.08
2022-08-28T04:37:58.744Z,89.95
2022-08-28T04:39:01.541Z,89.87
2022-08-28T04:40:05.401Z,89.72
2022-08-28T04:41:07.977Z,89.82
2022-08-28T04:42:09.617Z,89.72
2022-08-28T04:43:11.277Z,89.81
2022-08-28T04:44:12.999Z,89.62
2022-08-28T04:45:14.675Z,89.68
2022-08-28T04:46:16.403Z,89.84
2022-08-28T04:47:18.145Z,89.65
2022-08-28T04:48:19.858Z,89.80
2022-08-28T04:49:21.511Z,89.86
2022-08-28T04:50:27.414Z,89.87
2022-08-28T04:51:29.749Z,89.98
2022-08-28T04:52:31.359Z,89.98
2022-08-28T04:53:33.138Z,89.92
2022-08-28T04:54:35.223Z,89.86
2022-08-28T04:55:54.532Z,89.78
2022-08-28T04:56:56.555Z,89.89
2022-08-28T04:57:58.102Z,89.98
2022-08-28T04:59:00.078Z,89.89
2022-08-28T05:00:01.706Z,89.80
2022-08-28T05:01:08.044Z,89.78
2022-08-28T05:02:09.926Z,89.64
2022-08-28T05:03:11.822Z,89.65
2022-08-28T05:04:13.550Z,89.48
2022-08-28T05:05:15.457Z,89.20
2022-08-28T05:06:18.678Z,89.04
2022-08-28T05:07:20.482Z,89.08
2022-08-28T05:08:23.780Z,89.03
2022-08-28T05:09:25.332Z,89.06
2022-08-28T05:10:27.038Z,89.14
2022-08-28T05:11:33.129Z,88.96
2022-08-28T05:12:36.732Z,88.63
2022-08-28T05:13:38.353Z,88.54
2022-08-28T05:14:39.920Z,88.47
2022-08-28T05:15:43.873Z,88.55
2022-08-28T05:16:50.492Z,88.49
2022-08-28T05:17:52.441Z,88.53
2022-08-28T05:18:54.114Z,88.30
2022-08-28T05:19:55.738Z,88.27
2022-08-28T05:20:57.943Z,88.26
2022-08-28T05:22:00.879Z,88.21
2022-08-28T05:23:02.957Z,88.28
2022-08-28T05:24:05.750Z,88.14
2022-08-28T05:25:07.956Z,87.96
2022-08-28T05:26:13.174Z,87.90
2022-08-28T05:27:14.765Z,87.74
2022-08-28T05:28:17.105Z,87.51
2022-08-28T05:29:18.722Z,87.25
2022-08-28T05:30:20.386Z,87.09
2022-08-28T05:31:22.714Z,86.93
2022-08-28T05:32:24.388Z,87.02
2022-08-28T05:33:26.248Z,86.80
2022-08-28T05:34:27.932Z,86.79
2022-08-28T05:35:32.654Z,86.85
2022-08-28T05:36:35.673Z,86.67
2022-08-28T05:37:37.470Z,86.49
2022-08-28T05:38:39.431Z,86.20
2022-08-28T05:39:41.079Z,85.79
2022-08-28T05:40:44.103Z,85.66
2022-08-28T05:41:45.690Z,85.29
2022-08-28T05:42:48.186Z,85.09
2022-08-28T05:43:49.950Z,84.69
2022-08-28T05:44:54.730Z,84.28
2022-08-28T05:45:57.805Z,84.00
2022-08-28T05:47:00.530Z,83.83
2022-08-28T05:48:02.609Z,83.71
2022-08-28T05:49:09.613Z,83.53
2022-08-28T05:50:14.691Z,83.19
2022-08-28T05:51:18.816Z,83.02
2022-08-28T05:52:21.189Z,82.66
2022-08-28T05:53:22.716Z,82.41
2022-08-28T05:54:24.399Z,82.23
2022-08-28T05:55:26.020Z,82.10
2022-08-28T05:56:29.275Z,81.90
2022-08-28T05:57:30.912Z,81.76
2022-08-28T05:58:34.099Z,81.81
2022-08-28T05:59:35.904Z,81.64
2022-08-28T06:00:37.447Z,81.65
2022-08-28T06:01:44.242Z,81.43
2022-08-28T06:02:46.005Z,81.22
2022-08-28T06:03:53.232Z,81.48
2022-08-28T06:04:55.124Z,81.51
2022-08-28T06:05:56.744Z,81.27
2022-08-28T06:06:58.241Z,81.10
2022-08-28T06:07:59.745Z,81.19
2022-08-28T06:09:04.308Z,80.88
2022-08-28T06:10:06.876Z,80.69
2022-08-28T06:11:12.351Z,80.58
2022-08-28T06:12:14.961Z,80.24
2022-08-28T06:13:16.947Z,80.14
2022-08-28T06:14:20.128Z,80.21
2022-08-28T06:15:21.971Z,79.88
2022-08-28T06:16:23.727Z,79.87
2022-08-28T06:17:25.668Z,79.70
2022-08-28T06:18:27.418Z,79.57
2022-08-28T06:19:29.980Z,79.45
2022-08-28T06:20:35.544Z,79.30
2022-08-28T06:21:38.111Z,79.12
2022-08-28T06:22:39.858Z,79.21
2022-08-28T06:23:41.518Z,79.04
2022-08-28T06:24:43.222Z,78.92
2022-08-28T06:25:46.528Z,78.55
2022-08-28T06:26:48.170Z,78.44
2022-08-28T06:27:49.850Z,77.65
2022-08-28T06:28:52.934Z,77.50
2022-08-28T06:29:54.530Z,77.76
2022-08-28T06:31:17.756Z,77.38
2022-08-28T06:32:18.084Z,76.93
2022-08-28T06:33:20.938Z,76.30
2022-08-28T06:34:22.560Z,75.87
2022-08-28T06:35:24.067Z,74.75
2022-08-28T06:36:29.452Z,74.50
2022-08-28T06:37:31.137Z,74.29
2022-08-28T06:38:32.951Z,74.48
2022-08-28T06:39:34.455Z,74.10
2022-08-28T06:40:43.963Z,73.86
2022-08-28T06:41:45.689Z,73.91
2022-08-28T06:42:47.591Z,73.53
2022-08-28T06:43:49.280Z,73.46
2022-08-28T06:44:50.957Z,72.97
2022-08-28T06:45:53.852Z,72.77
2022-08-28T06:46:55.910Z,72.58
2022-08-28T06:47:57.806Z,72.22
2022-08-28T06:49:00.852Z,71.79
2022-08-28T06:50:02.726Z,71.75
2022-08-28T06:51:08.849Z,71.99
2022-08-28T06:52:10.587Z,71.93
2022-08-28T06:53:14.597Z,72.11
2022-08-28T06:54:21.398Z,72.09
2022-08-28T06:55:24.400Z,71.92
2022-08-28T06:56:27.151Z,71.58
2022-08-28T06:57:29.222Z,71.66
2022-08-28T06:58:32.019Z,72.00
2022-08-28T06:59:33.596Z,71.57
2022-08-28T07:00:35.650Z,71.55
2022-08-28T07:01:37.358Z,71.19
2022-08-28T07:02:39.193Z,71.40
2022-08-28T07:03:42.696Z,70.95
2022-08-28T07:04:49.803Z,71.34
2022-08-28T07:05:54.860Z,71.27
2022-08-28T07:06:56.530Z,71.71
2022-08-28T07:07:58.554Z,71.05
2022-08-28T07:09:00.569Z,70.61
2022-08-28T07:10:02.157Z,70.88
2022-08-28T07:11:09.851Z,70.49
2022-08-28T07:12:15.484Z,70.33
2022-08-28T07:13:17.855Z,70.39
2022-08-28T07:14:19.452Z,70.14
2022-08-28T07:15:21.140Z,70.20
2022-08-28T07:16:24.620Z,70.15
2022-08-28T07:17:26.219Z,70.18
2022-08-28T07:18:28.579Z,69.69
2022-08-28T07:19:30.259Z,70.29
2022-08-28T07:20:32.061Z,70.26
2022-08-28T07:21:38.768Z,70.25
2022-08-28T07:22:41.083Z,70.34
2022-08-28T07:23:43.687Z,70.02
2022-08-28T07:24:45.310Z,70.42
2022-08-28T07:25:46.855Z,69.97
2022-08-28T07:26:48.742Z,69.99
2022-08-28T07:27:50.869Z,69.89
2022-08-28T07:28:53.695Z,69.67
2022-08-28T07:30:12.658Z,69.55
2022-08-28T07:31:15.898Z,69.68
2022-08-28T07:32:20.055Z,69.99
2022-08-28T07:33:21.688Z,70.15
2022-08-28T07:34:27.081Z,70.04
2022-08-28T07:35:29.035Z,70.24
2022-08-28T07:36:30.578Z,70.11
2022-08-28T07:37:32.286Z,69.77
2022-08-28T07:38:36.247Z,69.98
2022-08-28T07:39:38.067Z,69.86
2022-08-28T07:40:39.869Z,70.03
2022-08-28T07:41:42.060Z,69.61
2022-08-28T07:43:02.333Z,69.33
2022-08-28T07:44:22.881Z,68.71
2022-08-28T07:45:25.562Z,68.80
2022-08-28T07:46:28.549Z,69.08
2022-08-28T07:47:30.910Z,68.77
2022-08-28T07:48:34.739Z,68.79
2022-08-28T07:49:37.739Z,68.90
2022-08-28T07:50:39.453Z,69.22
2022-08-28T07:51:43.082Z,69.04
2022-08-28T07:52:48.409Z,68.65
2022-08-28T07:53:50.079Z,68.78
2022-08-28T07:54:51.765Z,68.59
2022-08-28T07:55:53.335Z,68.30
2022-08-28T07:56:54.908Z,68.67
2022-08-28T07:57:56.450Z,68.29
2022-08-28T07:59:00.504Z,68.63
2022-08-28T08:00:03.455Z,68.39
2022-08-28T08:01:13.409Z,68.51
2022-08-28T08:02:15.913Z,68.12
2022-08-28T08:03:17.640Z,68.11
2022-08-28T08:04:20.890Z,67.58
2022-08-28T08:05:22.589Z,67.63
2022-08-28T08:06:27.195Z,67.48
2022-08-28T08:07:37.439Z,67.56
2022-08-28T08:08:44.727Z,67.89
2022-08-28T08:09:46.331Z,67.62
2022-08-28T08:10:57.201Z,67.57
2022-08-28T08:11:59.391Z,67.66
2022-08-28T08:13:02.521Z,67.13
2022-08-28T08:14:05.775Z,66.55
2022-08-28T08:15:09.188Z,66.65
2022-08-28T08:16:16.635Z,67.03
2022-08-28T08:17:18.393Z,66.81
2022-08-28T08:18:20.824Z,66.69
2022-08-28T08:19:25.686Z,67.05
2022-08-28T08:20:28.038Z,67.20
2022-08-28T08:21:30.709Z,67.28
2022-08-28T08:22:32.987Z,67.10
2022-08-28T08:23:35.307Z,67.12
2022-08-28T08:24:36.975Z,67.31
2022-08-28T08:25:38.629Z,67.14
2022-08-28T08:26:44.939Z,66.91
2022-08-28T08:28:00.814Z,66.55
2022-08-28T08:29:03.111Z,66.37
2022-08-28T08:30:04.954Z,66.32
2022-08-28T08:31:07.946Z,65.77
2022-08-28T08:32:10.505Z,65.68
2022-08-28T08:33:13.149Z,65.57
2022-08-28T08:34:15.755Z,65.66
2022-08-28T08:35:17.343Z,65.64
2022-08-28T08:36:20.064Z,65.62
2022-08-28T08:37:22.232Z,66.12
2022-08-28T08:38:23.994Z,66.04
2022-08-28T08:39:25.825Z,65.68
2022-08-28T08:40:27.762Z,65.41
2022-08-28T08:41:47.353Z,65.55
2022-08-28T08:42:51.325Z,65.37
2022-08-28T08:43:53.010Z,65.00
2022-08-28T08:44:56.438Z,64.57
2022-08-28T08:45:58.349Z,63.91
2022-08-28T08:47:14.842Z,63.68
2022-08-28T08:48:37.378Z,64.23
2022-08-28T08:49:41.168Z,64.63
2022-08-28T08:50:42.659Z,63.99
2022-08-28T08:51:53.561Z,63.81
2022-08-28T08:52:55.329Z,63.85
2022-08-28T08:54:04.162Z,64.27
2022-08-28T08:55:11.955Z,64.46
2022-08-28T08:56:21.009Z,64.41
2022-08-28T08:57:23.570Z,63.97
2022-08-28T08:58:32.349Z,64.18
2022-08-28T08:59:37.732Z,63.86
2022-08-28T09:00:55.591Z,64.23
2022-08-28T09:02:04.596Z,63.96
2022-08-28T09:03:09.020Z,63.77
2022-08-28T09:04:25.641Z,63.47
2022-08-28T09:05:41.232Z,63.18
2022-08-28T09:06:47.688Z,63.04
2022-08-28T09:07:57.161Z,62.93
2022-08-28T09:09:01.769Z,63.00
2022-08-28T09:10:04.307Z,62.79
2022-08-28T09:11:12.016Z,62.55
2022-08-28T09:12:16.438Z,61.83
2022-08-28T09:13:38.387Z,61.80
2022-08-28T09:14:56.922Z,62.13
2022-08-28T09:15:59.745Z,62.43
2022-08-28T09:17:01.970Z,62.17
2022-08-28T09:18:06.770Z,61.88
2022-08-28T09:19:10.201Z,61.96
2022-08-28T09:20:13.303Z,61.49
2022-08-28T09:21:29.071Z,61.82
2022-08-28T09:22:31.074Z,62.02
2022-08-28T09:23:32.786Z,62.19
2022-08-28T09:24:36.821Z,62.17
2022-08-28T09:25:47.109Z,62.00
2022-08-28T09:26:54.684Z,61.87
2022-08-28T09:28:04.987Z,61.60
2022-08-28T09:29:13.490Z,61.42
2022-08-28T09:30:27.582Z,61.45
2022-08-28T09:31:33.778Z,61.11
2022-08-28T09:32:43.717Z,61.04
2022-08-28T09:33:47.398Z,60.96
2022-08-28T09:35:06.408Z,60.58
2022-08-28T09:36:23.594Z,59.93
2022-08-28T09:37:26.904Z,60.09
2022-08-28T09:38:29.302Z,60.01
2022-08-28T09:39:32.041Z,59.66
2022-08-28T09:40:52.529Z,59.48
2022-08-28T09:42:15.542Z,59.56
2022-08-28T09:43:26.024Z,59.08
2022-08-28T09:44:28.057Z,59.64
2022-08-28T09:45:29.983Z,59.59
2022-08-28T09:46:32.014Z,59.48
2022-08-28T09:47:46.888Z,59.82
2022-08-28T09:48:53.045Z,59.89
2022-08-28T09:49:54.533Z,59.91
2022-08-28T09:51:03.021Z,59.49
2022-08-28T09:52:20.796Z,59.51
2022-08-28T09:53:27.887Z,59.76
2022-08-28T09:54:35.830Z,60.02
2022-08-28T09:55:37.289Z,59.90
2022-08-28T09:56:44.191Z,60.10
2022-08-28T09:57:46.569Z,59.93
2022-08-28T09:58:53.974Z,59.69
2022-08-28T09:59:56.835Z,59.31
2022-08-28T10:01:21.484Z,59.33
2022-08-28T10:02:28.299Z,59.42
2022-08-28T10:03:33.201Z,59.33
2022-08-28T10:04:53.278Z,59.29
2022-08-28T10:05:55.210Z,59.38
2022-08-28T10:07:03.326Z,58.62
2022-08-28T10:08:12.619Z,58.47
2022-08-28T10:09:20.735Z,58.55
2022-08-28T10:10:28.403Z,58.69
2022-08-28T10:11:44.327Z,58.63
2022-08-28T10:13:08.125Z,58.70
2022-08-28T10:14:14.775Z,59.34
2022-08-28T10:15:16.727Z,59.90
2022-08-28T10:16:28.088Z,58.99
2022-08-28T10:17:37.827Z,59.04
2022-08-28T10:18:45.474Z,59.12
2022-08-28T10:19:59.797Z,59.19
2022-08-28T10:21:01.545Z,58.90
2022-08-28T10:22:21.386Z,58.73
2022-08-28T10:23:23.892Z,58.26
2022-08-28T10:24:29.052Z,57.13
2022-08-28T10:25:32.321Z,57.15
2022-08-28T10:26:52.585Z,57.07
2022-08-28T10:28:09.919Z,57.44
2022-08-28T10:29:14.903Z,57.22
2022-08-28T10:30:20.069Z,57.81
2022-08-28T10:31:36.744Z,58.11
2022-08-28T10:33:02.474Z,57.94
2022-08-28T10:34:07.599Z,57.22
2022-08-28T10:35:11.264Z,56.97
2022-08-28T10:36:33.593Z,57.10
2022-08-28T10:37:48.885Z,56.96
2022-08-28T10:39:03.328Z,56.22
2022-08-28T10:40:10.821Z,55.19
2022-08-28T10:41:23.232Z,55.40
2022-08-28T10:42:36.326Z,55.11
2022-08-28T10:43:45.861Z,56.13
2022-08-28T10:44:55.023Z,55.56
2022-08-28T10:46:03.052Z,55.84
2022-08-28T10:47:05.074Z,55.67
2022-08-28T10:48:06.757Z,56.11
2022-08-28T10:49:19.603Z,56.78
2022-08-28T10:50:47.334Z,56.59
2022-08-28T10:51:52.450Z,56.64
2022-08-28T10:53:05.618Z,56.38
2022-08-28T10:54:21.228Z,55.76
2022-08-28T10:55:24.846Z,55.76
2022-08-28T10:56:55.990Z,56.16
2022-08-28T10:58:04.172Z,56.04
2022-08-28T10:59:05.760Z,56.09
2022-08-28T11:00:15.454Z,56.14
2022-08-28T11:01:26.547Z,56.33
2022-08-28T11:02:29.494Z,56.04
2022-08-28T11:03:36.335Z,55.93
2022-08-28T11:04:38.043Z,55.81
2022-08-28T11:05:53.745Z,55.80
2022-08-28T11:06:58.319Z,55.96
2022-08-28T11:08:04.529Z,56.32
2022-08-28T11:09:26.922Z,56.16
2022-08-28T11:10:31.494Z,55.76
2022-08-28T11:11:40.247Z,55.53
2022-08-28T11:12:42.749Z,55.03
2022-08-28T11:13:44.391Z,54.42
2022-08-28T11:14:48.980Z,54.39
2022-08-28T11:15:52.935Z,54.05
2022-08-28T11:16:56.494Z,54.00
2022-08-28T11:18:13.371Z,54.17
2022-08-28T11:19:33.440Z,54.96
2022-08-28T11:20:35.640Z,55.35
2022-08-28T11:21:40.999Z,55.85
2022-08-28T11:22:51.117Z,54.65
2022-08-28T11:23:59.433Z,55.40
2022-08-28T11:25:09.071Z,55.09
2022-08-28T11:26:14.037Z,54.96
2022-08-28T11:27:23.182Z,54.89
2022-08-28T11:28:24.969Z,54.99
2022-08-28T11:29:45.309Z,55.80
2022-08-28T11:30:48.830Z,55.04
2022-08-28T11:32:11.461Z,54.92
2022-08-28T11:33:31.813Z,54.48
2022-08-28T11:34:52.001Z,55.35
2022-08-28T11:35:53.687Z,54.90
2022-08-28T11:36:56.466Z,55.07
2022-08-28T11:37:58.066Z,54.98
2022-08-28T11:39:01.316Z,54.81
2022-08-28T11:40:21.802Z,54.64
2022-08-28T11:41:25.789Z,54.87
2022-08-28T11:42:29.010Z,54.77
2022-08-28T11:43:34.182Z,54.73
2022-08-28T11:44:41.066Z,54.64
2022-08-28T11:45:42.846Z,53.97
2022-08-28T11:46:49.650Z,54.08
2022-08-28T11:47:55.563Z,54.44
2022-08-28T11:48:58.821Z,54.47
2022-08-28T11:50:20.822Z,54.71
2022-08-28T11:51:22.507Z,54.18
2022-08-28T11:52:35.377Z,54.31
2022-08-28T11:53:36.873Z,54.09
2022-08-28T11:54:38.383Z,53.89
2022-08-28T11:55:56.706Z,54.25
2022-08-28T11:57:07.866Z,54.42
2022-08-28T11:58:22.542Z,54.42
2022-08-28T11:59:35.108Z,54.29
2022-08-28T12:00:52.105Z,54.57
2022-08-28T12:01:53.973Z,54.63
2022-08-28T12:03:02.281Z,54.79
2022-08-28T12:04:14.936Z,54.99
2022-08-28T12:05:16.520Z,55.18
2022-08-28T12:06:38.034Z,55.32
2022-08-28T12:07:42.878Z,55.32
2022-08-28T12:08:48.346Z,55.46
2022-08-28T12:09:50.039Z,55.94
2022-08-28T12:10:53.606Z,56.18
2022-08-28T12:11:57.086Z,56.37
2022-08-28T12:12:58.594Z,56.75
2022-08-28T12:14:00.279Z,57.50
2022-08-28T12:15:06.966Z,58.01
2022-08-28T12:16:08.806Z,58.44
2022-08-28T12:17:16.544Z,58.25
2022-08-28T12:18:38.092Z,58.67
2022-08-28T12:19:50.027Z,58.75
2022-08-28T12:21:00.105Z,58.61
2022-08-28T12:22:06.095Z,58.48
2022-08-28T12:23:22.997Z,58.16
2022-08-28T12:24:24.528Z,57.89
2022-08-28T12:25:26.212Z,57.71
2022-08-28T12:26:30.914Z,57.87
2022-08-28T12:27:37.801Z,58.09
2022-08-28T12:28:45.343Z,58.29
2022-08-28T12:29:52.506Z,58.33
2022-08-28T12:31:06.242Z,58.75
2022-08-28T12:32:10.732Z,58.97
2022-08-28T12:33:21.054Z,59.47
2022-08-28T12:34:58.254Z,59.54
2022-08-28T12:36:02.254Z,60.02
2022-08-28T12:37:04.802Z,59.90
2022-08-28T12:38:08.719Z,60.38
2022-08-28T12:39:15.552Z,60.27
2022-08-28T12:40:19.797Z,61.12
2022-08-28T12:41:23.902Z,61.06
2022-08-28T12:42:30.962Z,61.30
2022-08-28T12:43:40.873Z,61.55
2022-08-28T12:44:46.865Z,61.84
2022-08-28T12:45:50.298Z,62.35
2022-08-28T12:46:52.393Z,62.59
2022-08-28T12:47:56.164Z,62.64
2022-08-28T12:48:59.119Z,62.80
2022-08-28T12:50:19.487Z,63.32
2022-08-28T12:51:22.526Z,63.76
2022-08-28T12:52:25.351Z,63.53
2022-08-28T12:53:35.482Z,63.91
2022-08-28T12:54:37.150Z,64.48
2022-08-28T12:55:39.142Z,64.52
2022-08-28T12:56:41.611Z,64.72
2022-08-28T12:57:44.457Z,65.04
2022-08-28T12:58:46.527Z,64.79
2022-08-28T12:59:49.821Z,65.22
2022-08-28T13:00:54.282Z,65.33
2022-08-28T13:02:01.201Z,65.45
2022-08-28T13:03:03.272Z,65.40
2022-08-28T13:04:18.837Z,65.44
2022-08-28T13:05:40.443Z,65.86
2022-08-28T13:06:42.171Z,65.64
2022-08-28T13:07:49.173Z,65.56
2022-08-28T13:08:55.794Z,65.73
2022-08-28T13:09:59.121Z,64.72
2022-08-28T13:11:02.856Z,64.42
2022-08-28T13:12:06.098Z,63.85
2022-08-28T13:13:29.804Z,63.29
2022-08-28T13:14:39.733Z,62.49
2022-08-28T13:16:01.184Z,62.14
2022-08-28T13:17:04.086Z,61.14
2022-08-28T13:18:07.754Z,61.10
2022-08-28T13:19:11.743Z,61.16
2022-08-28T13:20:33.691Z,61.01
2022-08-28T13:21:36.707Z,60.93
2022-08-28T13:22:40.619Z,59.67
2022-08-28T13:23:43.294Z,58.68
2022-08-28T13:24:45.915Z,58.98
2022-08-28T13:25:47.905Z,58.69
2022-08-28T13:26:58.663Z,58.97
2022-08-28T13:28:02.436Z,58.53
2022-08-28T13:29:16.000Z,57.94
2022-08-28T13:30:26.683Z,57.80
2022-08-28T13:31:30.686Z,57.48
2022-08-28T13:32:33.551Z,57.16
2022-08-28T13:33:35.293Z,57.28
2022-08-28T13:34:38.171Z,57.51
2022-08-28T13:35:41.389Z,57.59
2022-08-28T13:36:45.173Z,57.62
2022-08-28T13:37:48.260Z,57.76
2022-08-28T13:38:49.786Z,57.51
2022-08-28T13:39:51.331Z,57.56
2022-08-28T13:40:58.706Z,57.24
2022-08-28T13:42:11.941Z,56.65
2022-08-28T13:43:14.903Z,56.56
2022-08-28T13:44:36.186Z,56.05
2022-08-28T13:45:42.707Z,55.47
2022-08-28T13:46:44.842Z,55.10
2022-08-28T13:47:46.969Z,54.21
2022-08-28T13:48:48.531Z,53.18
2022-08-28T13:49:50.023Z,53.45
2022-08-28T13:51:21.152Z,53.63
2022-08-28T13:52:23.978Z,53.15
2022-08-28T13:53:26.630Z,53.54
2022-08-28T13:54:28.391Z,53.95
2022-08-28T13:55:30.422Z,53.73
2022-08-28T13:56:31.978Z,53.70
2022-08-28T13:57:33.659Z,53.97
2022-08-28T13:58:38.070Z,53.42